createdAt,value
2019-02-11T00:01:15.487Z,98694.78
2019-02-11T00:03:44.243Z,98699.21
2019-02-11T00:06:12.966Z,98717.19
2019-02-11T00:08:41.847Z,98721.13
2019-02-11T00:11:10.611Z,98719.45
2019-02-11T00:13:39.341Z,98725.16
2019-02-11T00:16:08.111Z,98731.35
2019-02-11T00:18:36.846Z,98733.52
2019-02-11T00:21:05.601Z,98741.94
2019-02-11T00:23:34.323Z,98749.73
2019-02-11T00:26:03.069Z,98765.49
2019-02-11T00:28:31.822Z,98778.79
2019-02-11T00:31:00.575Z,98781.42
2019-02-11T00:33:29.298Z,98789.75
2019-02-11T00:35:58.118Z,98795.00
2019-02-11T00:38:26.954Z,98798.03
2019-02-11T00:40:55.688Z,98805.14
2019-02-11T00:43:24.411Z,98826.14
2019-02-11T00:45:53.162Z,98826.14
2019-02-11T00:48:21.891Z,98835.34
2019-02-11T00:50:50.644Z,98841.90
2019-02-11T00:53:19.372Z,98849.86
2019-02-11T00:55:48.229Z,98856.52
2019-02-11T00:58:17.041Z,98869.19
2019-02-11T01:00:45.794Z,98871.81
2019-02-11T01:03:14.518Z,98882.39
2019-02-11T01:05:43.275Z,98885.93
2019-02-11T01:08:12.000Z,98892.04
2019-02-11T01:10:40.769Z,98899.92
2019-02-11T01:13:09.499Z,98907.42
2019-02-11T01:15:38.259Z,98913.98
2019-02-11T01:18:06.998Z,98914.81
2019-02-11T01:20:35.750Z,98927.03
2019-02-11T01:23:04.515Z,98932.83
2019-02-11T01:25:33.245Z,98943.78
2019-02-11T01:28:02.034Z,98944.19
2019-02-11T01:30:30.759Z,98953.38
2019-02-11T01:32:59.521Z,98951.58
2019-02-11T01:35:28.244Z,98961.62
2019-02-11T01:37:57.001Z,98956.91
2019-02-11T01:40:25.722Z,98962.08
2019-02-11T01:42:54.474Z,98965.27
2019-02-11T01:45:23.205Z,98971.43
2019-02-11T01:47:51.982Z,98978.86
2019-02-11T01:50:20.759Z,98987.59
2019-02-11T01:52:49.467Z,98997.23
2019-02-11T01:55:18.203Z,98989.36
2019-02-11T01:57:46.951Z,98993.75
2019-02-11T02:00:15.679Z,98997.84
2019-02-11T02:02:44.427Z,98998.17
2019-02-11T02:05:13.158Z,98999.56
2019-02-11T02:07:41.923Z,98991.20
2019-02-11T02:10:12.696Z,98990.75
2019-02-11T02:12:41.456Z,99006.50
2019-02-11T02:15:10.818Z,99006.95
2019-02-11T02:17:39.575Z,99010.97
2019-02-11T02:20:10.051Z,99029.20
2019-02-11T02:22:38.818Z,99025.34
2019-02-11T02:25:08.074Z,99034.52
2019-02-11T02:27:36.855Z,99044.58
2019-02-11T02:30:06.386Z,99052.00
2019-02-11T02:32:35.142Z,99056.92
2019-02-11T02:35:04.086Z,99060.03
2019-02-11T02:37:32.842Z,99067.42
2019-02-11T02:40:01.641Z,99069.67
2019-02-11T02:42:30.401Z,99071.44
2019-02-11T02:44:59.130Z,99071.92
2019-02-11T02:47:27.970Z,99071.92
2019-02-11T02:49:56.709Z,99081.94
2019-02-11T02:52:25.435Z,99082.42
2019-02-11T02:54:54.185Z,99096.87
2019-02-11T02:57:23.160Z,99093.84
2019-02-11T02:59:51.922Z,99098.71
2019-02-11T03:02:20.651Z,99104.41
2019-02-11T03:04:49.407Z,99107.45
2019-02-11T03:07:18.131Z,99116.64
2019-02-11T03:09:46.910Z,99115.77
2019-02-11T03:12:15.642Z,99119.72
2019-02-11T03:14:44.387Z,99121.89
2019-02-11T03:17:13.110Z,99131.16
2019-02-11T03:19:41.862Z,99131.53
2019-02-11T03:22:10.610Z,99126.05
2019-02-11T03:24:39.371Z,99133.45
2019-02-11T03:27:08.238Z,99145.19
2019-02-11T03:29:36.994Z,99153.47
2019-02-11T03:32:05.724Z,99158.80
2019-02-11T03:34:34.478Z,99167.98
2019-02-11T03:37:03.318Z,99181.49
2019-02-11T03:39:32.071Z,99180.63
2019-02-11T03:42:00.793Z,99185.87
2019-02-11T03:44:29.549Z,99192.85
2019-02-11T03:46:58.344Z,99193.37
2019-02-11T03:49:27.171Z,99197.70
2019-02-11T03:51:55.903Z,99200.02
2019-02-11T03:54:24.658Z,99201.70
2019-02-11T03:56:53.392Z,99220.09
2019-02-11T03:59:22.283Z,99219.19
2019-02-11T04:01:51.007Z,99224.95
2019-02-11T04:04:19.791Z,99238.16
2019-02-11T04:06:48.511Z,99243.78
2019-02-11T04:09:18.492Z,99248.52
2019-02-11T04:11:47.169Z,99257.70
2019-02-11T04:14:24.408Z,99263.48
2019-02-11T04:16:46.414Z,99267.41
2019-02-11T04:19:15.143Z,99276.23
2019-02-11T04:21:43.984Z,99284.10
2019-02-11T04:24:12.725Z,99294.23
2019-02-11T04:26:41.479Z,99297.23
2019-02-11T04:29:10.226Z,99305.56
2019-02-11T04:31:38.985Z,99301.62
2019-02-11T04:34:07.712Z,99301.69
2019-02-11T04:36:36.461Z,99309.98
2019-02-11T04:39:06.458Z,99316.13
2019-02-11T04:41:35.204Z,99321.86
2019-02-11T04:44:04.001Z,99321.94
2019-02-11T04:46:32.758Z,99326.25
2019-02-11T04:49:01.485Z,99334.58
2019-02-11T04:51:30.242Z,99341.62
2019-02-11T04:53:58.999Z,99354.27
2019-02-11T04:56:27.752Z,99359.45
2019-02-11T04:58:56.487Z,99362.08
2019-02-11T05:01:25.242Z,99358.14
2019-02-11T05:03:54.171Z,99366.95
2019-02-11T05:06:23.030Z,99383.08
2019-02-11T05:08:51.707Z,99387.08
2019-02-11T05:11:20.455Z,99387.02
2019-02-11T05:13:49.178Z,99387.88
2019-02-11T05:16:17.927Z,99392.27
2019-02-11T05:18:46.658Z,99402.91
2019-02-11T05:21:15.414Z,99402.39
2019-02-11T05:23:44.231Z,99397.52
2019-02-11T05:26:12.990Z,99414.52
2019-02-11T05:28:41.762Z,99421.94
2019-02-11T05:31:10.481Z,99423.64
2019-02-11T05:33:39.320Z,99427.38
2019-02-11T05:36:08.043Z,99427.23
2019-02-11T05:38:36.971Z,99435.05
2019-02-11T05:41:05.766Z,99435.84
2019-02-11T05:43:34.519Z,99440.96
2019-02-11T05:46:03.253Z,99451.27
2019-02-11T05:48:32.080Z,99456.83
2019-02-11T05:51:00.880Z,99453.69
2019-02-11T05:53:29.632Z,99458.88
2019-02-11T05:55:58.444Z,99460.98
2019-02-11T05:58:27.530Z,99469.55
2019-02-11T06:00:56.275Z,99480.79
2019-02-11T06:03:25.130Z,99478.48
2019-02-11T06:05:53.847Z,99483.21
2019-02-11T06:08:22.612Z,99491.27
2019-02-11T06:10:51.461Z,99488.44
2019-02-11T06:13:20.221Z,99489.89
2019-02-11T06:15:48.951Z,99504.06
2019-02-11T06:18:17.785Z,99504.63
2019-02-11T06:20:46.520Z,99515.20
2019-02-11T06:23:15.276Z,99516.16
2019-02-11T06:25:43.999Z,99507.44
2019-02-11T06:28:12.798Z,99526.80
2019-02-11T06:30:41.533Z,99530.81
2019-02-11T06:33:10.287Z,99530.97
2019-02-11T06:35:39.088Z,99533.24
2019-02-11T06:38:07.856Z,99546.97
2019-02-11T06:40:36.681Z,99548.07
2019-02-11T06:43:05.443Z,99553.98
2019-02-11T06:45:34.253Z,99550.68
2019-02-11T06:48:03.112Z,99559.00
2019-02-11T06:50:31.848Z,99570.22
2019-02-11T06:53:00.590Z,99578.54
2019-02-11T06:55:29.424Z,99583.69
2019-02-11T06:57:58.178Z,99582.86
2019-02-11T07:00:26.997Z,99590.89
2019-02-11T07:02:55.808Z,99589.47
2019-02-11T07:05:24.714Z,99587.98
2019-02-11T07:07:53.443Z,99600.85
2019-02-11T07:10:22.192Z,99594.63
2019-02-11T07:12:51.099Z,99607.61
2019-02-11T07:15:22.063Z,99600.64
2019-02-11T07:17:50.347Z,99617.86
2019-02-11T07:20:19.226Z,99614.00
2019-02-11T07:22:48.033Z,99622.31
2019-02-11T07:25:16.854Z,99621.69
2019-02-11T07:27:45.626Z,99633.33
2019-02-11T07:30:14.417Z,99636.50
2019-02-11T07:32:43.170Z,99642.63
2019-02-11T07:35:12.013Z,99644.63
2019-02-11T07:37:40.744Z,99653.03
2019-02-11T07:40:09.929Z,99661.23
2019-02-11T07:42:55.851Z,99670.16
2019-02-11T07:45:33.259Z,99674.20
2019-02-11T07:48:01.995Z,99689.23
2019-02-11T07:50:30.755Z,99687.61
2019-02-11T07:52:59.471Z,99696.34
2019-02-11T07:55:28.251Z,99700.79
2019-02-11T07:57:57.128Z,99720.00
2019-02-11T08:00:25.885Z,99723.12
2019-02-11T08:02:54.615Z,99729.23
2019-02-11T08:05:23.451Z,99727.83
2019-02-11T08:07:52.274Z,99737.06
2019-02-11T08:10:21.103Z,99745.76
2019-02-11T08:12:49.841Z,99748.85
2019-02-11T08:15:18.782Z,99748.17
2019-02-11T08:17:47.578Z,99762.14
2019-02-11T08:20:16.311Z,99760.36
2019-02-11T08:22:45.073Z,99765.52
2019-02-11T08:25:13.817Z,99772.83
2019-02-11T08:27:42.665Z,99778.73
2019-02-11T08:30:11.535Z,99779.41
2019-02-11T08:32:40.369Z,99788.41
2019-02-11T08:35:09.232Z,99791.92
2019-02-11T08:37:38.038Z,99798.73
2019-02-11T08:40:07.071Z,99811.63
2019-02-11T08:42:35.841Z,99808.07
2019-02-11T08:45:05.502Z,99813.20
2019-02-11T08:47:34.398Z,99822.20
2019-02-11T08:50:03.141Z,99827.33
2019-02-11T08:52:31.906Z,99839.88
2019-02-11T08:55:00.797Z,99838.33
2019-02-11T08:57:29.579Z,99847.59
2019-02-11T08:59:58.318Z,99844.71
2019-02-11T09:02:48.810Z,99852.93
2019-02-11T09:05:16.777Z,99858.59
2019-02-11T09:07:45.529Z,99861.64
2019-02-11T09:10:14.554Z,99865.98
2019-02-11T09:12:43.369Z,99874.28
2019-02-11T09:15:12.148Z,99882.61
2019-02-11T09:17:40.913Z,99882.61
2019-02-11T09:20:10.042Z,99890.12
2019-02-11T09:22:38.855Z,99892.69
2019-02-11T09:25:08.829Z,99899.77
2019-02-11T09:27:37.598Z,99906.05
2019-02-11T09:30:08.591Z,99918.80
2019-02-11T09:32:37.330Z,99923.78
2019-02-11T09:35:06.496Z,99919.89
2019-02-11T09:37:36.732Z,99927.81
2019-02-11T09:40:06.970Z,99939.21
2019-02-11T09:42:35.705Z,99943.51
2019-02-11T09:45:05.280Z,99946.08
2019-02-11T09:47:34.024Z,99951.28
2019-02-11T09:50:18.557Z,99954.67
2019-02-11T09:52:47.302Z,99954.14
2019-02-11T09:55:19.124Z,99962.59
2019-02-11T09:57:47.932Z,99952.97
2019-02-11T10:00:16.702Z,99953.51
2019-02-11T10:02:45.544Z,99959.80
2019-02-11T10:05:14.362Z,99966.59
2019-02-11T10:07:43.098Z,99977.75
2019-02-11T10:10:11.862Z,99981.41
2019-02-11T10:12:40.628Z,99995.70
2019-02-11T10:15:10.545Z,99999.52
2019-02-11T10:17:39.286Z,100001.25
2019-02-11T10:20:09.400Z,100005.22
2019-02-11T10:22:38.410Z,100027.13
2019-02-11T10:25:10.775Z,100029.09
2019-02-11T10:27:39.591Z,100033.48
2019-02-11T10:30:10.420Z,100031.09
2019-02-11T10:32:39.203Z,100042.80
2019-02-11T10:35:08.636Z,100046.19
2019-02-11T10:37:37.404Z,100047.78
2019-02-11T10:40:06.726Z,100047.56
2019-02-11T10:42:35.517Z,100053.42
2019-02-11T10:45:04.448Z,100068.84
2019-02-11T10:47:33.213Z,100072.26
2019-02-11T10:50:01.955Z,100071.32
2019-02-11T10:52:30.842Z,100077.05
2019-02-11T10:54:59.583Z,100085.32
2019-02-11T10:57:28.572Z,100092.11
2019-02-11T10:59:57.314Z,100095.09
2019-02-11T11:02:26.154Z,100102.09
2019-02-11T11:04:54.924Z,100090.81
2019-02-11T11:07:23.691Z,100104.70
2019-02-11T11:09:52.431Z,100101.52
2019-02-11T11:12:21.301Z,100105.17
2019-02-11T11:14:50.049Z,100094.63
2019-02-11T11:17:18.840Z,100103.33
2019-02-11T11:19:47.671Z,100110.29
2019-02-11T11:22:16.443Z,100113.83
2019-02-11T11:24:45.194Z,100136.14
2019-02-11T11:27:14.085Z,100152.05
2019-02-11T11:29:42.832Z,100167.86
2019-02-11T11:32:11.709Z,100154.85
2019-02-11T11:34:40.458Z,100162.59
2019-02-11T11:37:09.644Z,100162.36
2019-02-11T11:39:38.398Z,100170.39
2019-02-11T11:42:07.178Z,100173.41
2019-02-11T11:44:35.991Z,100181.91
2019-02-11T11:47:05.234Z,100171.85
2019-02-11T11:49:34.071Z,100179.06
2019-02-11T11:52:02.853Z,100178.64
2019-02-11T11:54:31.670Z,100175.97
2019-02-11T11:57:00.437Z,100180.03
2019-02-11T11:59:29.180Z,100185.27
2019-02-11T12:01:57.957Z,100192.63
2019-02-11T12:04:26.697Z,100203.48
2019-02-11T12:06:55.531Z,100207.98
2019-02-11T12:09:24.420Z,100206.59
2019-02-11T12:11:53.296Z,100207.19
2019-02-11T12:14:22.066Z,100205.19
2019-02-11T12:16:56.894Z,100211.27
2019-02-11T12:19:21.326Z,100222.95
2019-02-11T12:21:50.106Z,100225.88
2019-02-11T12:24:19.025Z,100226.66
2019-02-11T12:26:47.916Z,100232.20
2019-02-11T12:29:16.725Z,100237.70
2019-02-11T12:31:45.465Z,100252.34
2019-02-11T12:34:14.272Z,100250.84
2019-02-11T12:36:43.103Z,100263.94
2019-02-11T12:39:11.871Z,100267.25
2019-02-11T12:41:40.626Z,100258.73
2019-02-11T12:44:09.634Z,100280.52
2019-02-11T12:46:39.587Z,100311.50
2019-02-11T12:49:08.437Z,100339.00
2019-02-11T12:51:37.177Z,100355.17
2019-02-11T12:54:06.001Z,100344.84
2019-02-11T12:56:35.459Z,100346.18
2019-02-11T12:59:06.754Z,100345.08
2019-02-11T13:01:35.510Z,100349.85
2019-02-11T13:04:04.489Z,100353.95
2019-02-11T13:06:33.346Z,100357.48
2019-02-11T13:09:02.346Z,100354.53
2019-02-11T13:11:32.475Z,100368.75
2019-02-11T13:14:01.252Z,100356.73
2019-02-11T13:16:30.076Z,100368.58
2019-02-11T13:18:59.157Z,100372.86
2019-02-11T13:21:27.911Z,100379.48
2019-02-11T13:23:56.680Z,100381.68
2019-02-11T13:26:25.589Z,100391.25
2019-02-11T13:28:54.434Z,100389.30
2019-02-11T13:31:25.072Z,100392.55
2019-02-11T13:33:53.886Z,100392.95
2019-02-11T13:36:22.980Z,100404.81
2019-02-11T13:38:51.862Z,100407.30
2019-02-11T13:41:20.734Z,100415.09
2019-02-11T13:43:51.485Z,100404.77
2019-02-11T13:46:20.247Z,100416.87
2019-02-11T13:48:51.085Z,100415.09
2019-02-11T13:51:19.845Z,100415.50
2019-02-11T13:53:48.606Z,100422.30
2019-02-11T13:56:17.412Z,100415.16
2019-02-11T13:58:46.271Z,100427.79
2019-02-11T14:01:15.055Z,100435.91
2019-02-11T14:03:43.823Z,100430.61
2019-02-11T14:06:12.577Z,100441.21
2019-02-11T14:08:41.346Z,100446.05
2019-02-11T14:11:10.100Z,100450.87
2019-02-11T14:13:38.912Z,100461.02
2019-02-11T14:16:07.739Z,100465.16
2019-02-11T14:18:36.490Z,100454.41
2019-02-11T14:21:05.613Z,100470.31
2019-02-11T14:23:34.424Z,100467.48
2019-02-11T14:26:03.205Z,100472.71
2019-02-11T14:28:32.005Z,100472.95
2019-02-11T14:31:00.812Z,100486.92
2019-02-11T14:33:29.629Z,100493.00
2019-02-11T14:35:58.484Z,100488.23
2019-02-11T14:38:27.435Z,100507.19
2019-02-11T14:40:56.197Z,100517.48
2019-02-11T14:43:24.940Z,100512.56
2019-02-11T14:45:53.761Z,100517.00
2019-02-11T14:48:27.835Z,100532.91
2019-02-11T14:50:52.992Z,100524.95
2019-02-11T14:53:21.805Z,100538.20
2019-02-11T14:55:50.604Z,100548.58
2019-02-11T14:58:19.423Z,100547.14
2019-02-11T15:00:48.191Z,100562.97
2019-02-11T15:03:17.324Z,100577.61
2019-02-11T15:05:46.088Z,100571.06
2019-02-11T15:08:14.898Z,100585.11
2019-02-11T15:10:43.671Z,100591.20
2019-02-11T15:13:12.462Z,100598.52
2019-02-11T15:15:41.224Z,100601.58
2019-02-11T15:18:09.960Z,100607.91
2019-02-11T15:20:38.725Z,100619.70
2019-02-11T15:23:07.464Z,100624.77
2019-02-11T15:25:36.224Z,100634.58
2019-02-11T15:28:05.039Z,100640.17
2019-02-11T15:30:33.877Z,100642.17
2019-02-11T15:33:02.710Z,100647.17
2019-02-11T15:35:31.473Z,100656.66
2019-02-11T15:38:00.301Z,100654.54
2019-02-11T15:40:29.423Z,100657.93
2019-02-11T15:42:58.161Z,100671.17
2019-02-11T15:45:26.973Z,100682.61
2019-02-11T15:47:55.757Z,100685.41
2019-02-11T15:50:24.508Z,100701.06
2019-02-11T15:52:53.273Z,100705.35
2019-02-11T15:55:22.084Z,100709.95
2019-02-11T15:57:51.012Z,100719.50
2019-02-11T16:00:21.107Z,100737.00
2019-02-11T16:02:51.587Z,100745.60
2019-02-11T16:05:20.387Z,100750.31
2019-02-11T16:07:50.237Z,100767.80
2019-02-11T16:10:21.352Z,100773.16
2019-02-11T16:12:50.224Z,100785.67
2019-02-11T16:15:19.366Z,100793.23
2019-02-11T16:17:48.293Z,100792.81
2019-02-11T16:20:17.032Z,100808.70
2019-02-11T16:22:45.874Z,100818.97
2019-02-11T16:25:14.870Z,100828.82
2019-02-11T16:27:43.652Z,100834.25
2019-02-11T16:30:14.687Z,100837.02
2019-02-11T16:32:43.450Z,100847.61
2019-02-11T16:35:12.987Z,100854.78
2019-02-11T16:37:41.817Z,100865.83
2019-02-11T16:40:13.269Z,100866.41
2019-02-11T16:42:42.033Z,100876.28
2019-02-11T16:45:10.857Z,100882.16
2019-02-11T16:47:39.624Z,100892.00
2019-02-11T16:50:08.996Z,100896.52
2019-02-11T16:52:37.828Z,100909.06
2019-02-11T16:55:07.394Z,100909.63
2019-02-11T16:57:36.174Z,100911.44
2019-02-11T17:00:05.605Z,100914.27
2019-02-11T17:02:34.437Z,100928.08
2019-02-11T17:05:03.323Z,100933.42
2019-02-11T17:07:32.251Z,100951.25
2019-02-11T17:10:01.002Z,100948.22
2019-02-11T17:12:29.794Z,100957.09
2019-02-11T17:14:58.613Z,100964.21
2019-02-11T17:17:27.448Z,100973.48
2019-02-11T17:19:56.216Z,100982.28
2019-02-11T17:22:25.045Z,100987.09
2019-02-11T17:24:53.897Z,100986.31
2019-02-11T17:27:22.670Z,101004.84
2019-02-11T17:29:51.400Z,101005.84
2019-02-11T17:32:20.169Z,101021.45
2019-02-11T17:34:48.987Z,101016.27
2019-02-11T17:37:17.822Z,101037.99
2019-02-11T17:39:46.558Z,101038.53
2019-02-11T17:42:15.326Z,101039.91
2019-02-11T17:44:44.214Z,101036.95
2019-02-11T17:47:13.045Z,101041.95
2019-02-11T17:49:41.818Z,101044.23
2019-02-11T17:52:11.373Z,101050.47
2019-02-11T17:54:59.402Z,101057.19
2019-02-11T17:57:28.170Z,101064.78
2019-02-11T17:59:57.230Z,101068.86
2019-02-11T18:02:26.003Z,101073.80
2019-02-11T18:04:54.739Z,101080.81
2019-02-11T18:07:23.487Z,101082.53
2019-02-11T18:09:52.342Z,101089.83
2019-02-11T18:12:21.107Z,101096.09
2019-02-11T18:14:49.875Z,101091.30
2019-02-11T18:17:18.789Z,101104.47
2019-02-11T18:19:47.577Z,101104.97
2019-02-11T18:22:16.348Z,101112.66
2019-02-11T18:24:45.261Z,101104.44
2019-02-11T18:27:14.074Z,101107.98
2019-02-11T18:29:42.837Z,101112.48
2019-02-11T18:32:11.653Z,101121.73
2019-02-11T18:34:40.425Z,101132.80
2019-02-11T18:37:09.158Z,101135.94
2019-02-11T18:39:37.950Z,101135.59
2019-02-11T18:42:06.835Z,101131.23
2019-02-11T18:44:35.613Z,101135.73
2019-02-11T18:47:04.348Z,101137.11
2019-02-11T18:49:34.636Z,101126.19
2019-02-11T18:52:02.754Z,101131.05
2019-02-11T18:54:31.528Z,101140.39
2019-02-11T18:57:00.349Z,101139.13
2019-02-11T18:59:29.271Z,101144.50
2019-02-11T19:01:58.020Z,101141.02
2019-02-11T19:04:26.789Z,101135.83
2019-02-11T19:06:55.673Z,101139.80
2019-02-11T19:09:24.527Z,101146.45
2019-02-11T19:11:53.286Z,101152.67
2019-02-11T19:14:22.060Z,101152.67
2019-02-11T19:16:50.801Z,101165.53
2019-02-11T19:19:19.645Z,101160.70
2019-02-11T19:21:48.460Z,101164.70
2019-02-11T19:24:17.222Z,101171.36
2019-02-11T19:26:46.182Z,101173.60
2019-02-11T19:29:14.988Z,101185.53
2019-02-11T19:31:43.730Z,101185.98
2019-02-11T19:34:12.563Z,101189.15
2019-02-11T19:36:41.353Z,101199.23
2019-02-11T19:39:10.396Z,101189.64
2019-02-11T19:41:39.309Z,101194.05
2019-02-11T19:44:08.076Z,101196.73
2019-02-11T19:46:36.918Z,101198.09
2019-02-11T19:49:05.685Z,101207.82
2019-02-11T19:51:34.435Z,101210.03
2019-02-11T19:54:03.398Z,101219.80
2019-02-11T19:56:32.291Z,101225.08
2019-02-11T19:59:01.056Z,101223.80
2019-02-11T20:01:29.901Z,101227.81
2019-02-11T20:04:07.067Z,101234.91
2019-02-11T20:06:29.245Z,101233.63
2019-02-11T20:08:57.999Z,101237.19
2019-02-11T20:11:26.769Z,101246.87
2019-02-11T20:13:55.530Z,101243.00
2019-02-11T20:16:24.305Z,101246.09
2019-02-11T20:18:53.138Z,101250.09
2019-02-11T20:21:21.841Z,101247.93
2019-02-11T20:23:50.585Z,101252.73
2019-02-11T20:26:19.381Z,101250.61
2019-02-11T20:28:48.125Z,101248.86
2019-02-11T20:31:16.894Z,101259.42
2019-02-11T20:33:45.801Z,101253.30
2019-02-11T20:36:14.645Z,101244.50
2019-02-11T20:38:43.385Z,101248.91
2019-02-11T20:41:12.144Z,101244.98
2019-02-11T20:43:40.889Z,101253.38
2019-02-11T20:46:09.721Z,101261.30
2019-02-11T20:48:38.786Z,101267.47
2019-02-11T20:51:07.616Z,101273.27
2019-02-11T20:53:36.425Z,101273.27
2019-02-11T20:56:05.196Z,101274.63
2019-02-11T20:58:33.925Z,101279.03
2019-02-11T21:01:02.995Z,101291.36
2019-02-11T21:03:31.789Z,101312.53
2019-02-11T21:06:00.554Z,101331.01
2019-02-11T21:08:29.291Z,101317.00
2019-02-11T21:10:58.362Z,101325.77
2019-02-11T21:13:27.139Z,101329.77
2019-02-11T21:15:55.898Z,101344.29
2019-02-11T21:18:24.707Z,101343.89
2019-02-11T21:20:53.595Z,101337.73
2019-02-11T21:23:22.430Z,101359.73
2019-02-11T21:25:51.193Z,101354.48
2019-02-11T21:28:19.945Z,101359.77
2019-02-11T21:30:48.689Z,101359.37
2019-02-11T21:33:17.449Z,101368.17
2019-02-11T21:35:46.278Z,101377.41
2019-02-11T21:38:15.041Z,101375.69
2019-02-11T21:40:43.778Z,101373.09
2019-02-11T21:43:12.537Z,101381.89
2019-02-11T21:45:41.276Z,101377.09
2019-02-11T21:48:10.048Z,101378.89
2019-02-11T21:50:38.784Z,101378.05
2019-02-11T21:53:07.544Z,101371.48
2019-02-11T21:55:55.561Z,101372.36
2019-02-11T21:58:24.325Z,101374.16
2019-02-11T22:00:56.805Z,101368.92
2019-02-11T22:03:22.758Z,101373.72
2019-02-11T22:05:51.551Z,101368.08
2019-02-11T22:08:20.282Z,101380.40
2019-02-11T22:10:49.101Z,101385.23
2019-02-11T22:13:17.889Z,101385.23
2019-02-11T22:15:46.625Z,101382.64
2019-02-11T22:18:15.392Z,101387.47
2019-02-11T22:20:44.126Z,101384.40
2019-02-11T22:23:12.957Z,101380.92
2019-02-11T22:25:41.699Z,101397.16
2019-02-11T22:28:10.543Z,101393.23
2019-02-11T22:30:39.277Z,101398.95
2019-02-11T22:33:08.136Z,101398.11
2019-02-11T22:35:36.871Z,101408.70
2019-02-11T22:38:05.714Z,101402.14
2019-02-11T22:40:34.526Z,101408.73
2019-02-11T22:43:03.363Z,101402.58
2019-02-11T22:45:32.100Z,101406.55
2019-02-11T22:48:00.900Z,101409.22
2019-02-11T22:50:29.631Z,101417.17
2019-02-11T22:52:58.393Z,101425.09
2019-02-11T22:55:27.200Z,101433.45
2019-02-11T22:57:55.957Z,101421.61
2019-02-11T23:00:39.963Z,101429.97
2019-02-11T23:03:08.794Z,101432.20
2019-02-11T23:05:37.605Z,101433.55
2019-02-11T23:08:06.366Z,101435.79
2019-02-11T23:10:35.178Z,101443.30
2019-02-11T23:13:04.037Z,101459.98
2019-02-11T23:15:32.917Z,101461.30
2019-02-11T23:18:01.692Z,101458.22
2019-02-11T23:20:30.501Z,101463.94
2019-02-11T23:22:59.341Z,101456.05
2019-02-11T23:25:28.095Z,101450.37
2019-02-11T23:27:56.842Z,101452.13
2019-02-11T23:30:25.674Z,101450.00
2019-02-11T23:32:54.418Z,101447.77
2019-02-11T23:35:23.188Z,101440.77
2019-02-11T23:37:51.926Z,101446.05
2019-02-11T23:40:20.759Z,101437.25
2019-02-11T23:42:49.637Z,101445.20
2019-02-11T23:45:18.397Z,101448.28
2019-02-11T23:47:47.215Z,101459.27
2019-02-11T23:50:15.973Z,101466.75
2019-02-11T23:52:44.705Z,101468.58
2019-02-11T23:55:13.469Z,101471.22
2019-02-11T23:57:42.211Z,101468.98
